Time;durP1;ratioP1;P1;durP2;ratioP2;P2;SDS_P1;SDS_P2;PMS_P1;PMS_P2;Temp;Humidity;BMP_temperature;BMP_pressure;BME280_temperature;BME280_humidity;BME280_pressure;Samples;Min_cycle;Max_cycle;Signal;HPM_P1;HPM_P2
2021/12/29 00:00:21;;;;;;;520.63;16.05;;;5.20;99.90;;;;;;5028709;28;20111;-65
2021/12/29 00:02:49;;;;;;;468.48;14.70;;;5.20;99.90;;;;;;5026893;28;20079;-65
2021/12/29 00:05:16;;;;;;;329.15;9.85;;;5.20;99.90;;;;;;5027543;28;20520;-65
2021/12/29 00:07:44;;;;;;;458.73;16.45;;;5.10;99.90;;;;;;5024943;28;20080;-66
2021/12/29 00:10:11;;;;;;;527.70;20.60;;;5.10;99.90;;;;;;5025858;28;20049;-66
2021/12/29 00:12:45;;;;;;;556.45;19.17;;;5.10;99.90;;;;;;5026986;28;20439;-65
2021/12/29 00:15:16;;;;;;;506.20;20.10;;;5.10;99.90;;;;;;5027282;28;20045;-65
2021/12/29 00:17:45;;;;;;;692.75;26.52;;;5.10;99.90;;;;;;5010298;28;20056;-65
2021/12/29 00:20:17;;;;;;;468.90;20.92;;;5.20;99.90;;;;;;5026297;28;20114;-65
2021/12/29 00:22:44;;;;;;;404.52;20.77;;;5.20;99.90;;;;;;5025412;28;20141;-65
2021/12/29 00:25:12;;;;;;;356.10;21.88;;;5.20;99.90;;;;;;5027040;28;20564;-65
2021/12/29 00:27:40;;;;;;;565.10;31.95;;;5.40;99.90;;;;;;5026178;28;20099;-65
2021/12/29 00:30:08;;;;;;;441.90;23.35;;;5.40;99.90;;;;;;5028173;28;20038;-66
2021/12/29 00:32:35;;;;;;;189.77;11.13;;;5.40;99.90;;;;;;5023573;28;20512;-66
2021/12/29 00:35:02;;;;;;;363.15;12.90;;;5.40;99.90;;;;;;5025580;28;20041;-65
2021/12/29 00:37:29;;;;;;;313.95;15.18;;;5.40;99.90;;;;;;5026663;28;20049;-66
2021/12/29 00:39:55;;;;;;;403.50;17.73;;;5.30;99.90;;;;;;5025258;28;20049;-65
2021/12/29 00:42:22;;;;;;;289.98;17.30;;;5.30;99.90;;;;;;5028127;28;20053;-66
2021/12/29 00:44:50;;;;;;;339.80;22.15;;;5.40;99.90;;;;;;5025015;28;20550;-66
2021/12/29 00:47:17;;;;;;;212.80;19.13;;;5.40;99.90;;;;;;5028058;28;20563;-65
2021/12/29 00:49:46;;;;;;;259.60;19.08;;;5.40;99.90;;;;;;5026058;28;20080;-66
2021/12/29 00:52:13;;;;;;;355.45;21.30;;;5.50;99.90;;;;;;5027591;28;20046;-66
2021/12/29 00:54:42;;;;;;;174.52;16.13;;;5.50;99.90;;;;;;5026116;28;20053;-65
2021/12/29 00:57:08;;;;;;;485.20;26.65;;;5.60;99.90;;;;;;5025165;28;20143;-66
2021/12/29 00:59:35;;;;;;;333.23;24.80;;;5.60;99.90;;;;;;5026488;28;20052;-65
2021/12/29 01:02:02;;;;;;;219.50;19.88;;;5.50;99.90;;;;;;5023209;28;20511;-65
2021/12/29 01:04:28;;;;;;;541.33;27.45;;;5.60;99.90;;;;;;5026912;28;20081;-66
2021/12/29 01:06:55;;;;;;;308.52;22.52;;;5.60;99.90;;;;;;5025484;28;20459;-65
2021/12/29 01:09:21;;;;;;;348.33;26.85;;;5.60;99.90;;;;;;5025483;28;20405;-66
2021/12/29 01:11:48;;;;;;;639.80;43.05;;;5.60;99.90;;;;;;5024459;28;20473;-65
2021/12/29 01:14:21;;;;;;;1096.60;52.03;;;5.70;99.90;;;;;;5025633;28;20046;-65
2021/12/29 01:16:48;;;;;;;945.15;45.92;;;5.70;99.90;;;;;;5025629;28;20487;-65
2021/12/29 01:19:22;;;;;;;360.55;23.80;;;5.60;99.90;;;;;;5024655;28;20057;-65
2021/12/29 01:21:52;;;;;;;408.55;26.10;;;5.60;99.90;;;;;;5012646;28;20484;-65
2021/12/29 01:24:26;;;;;;;425.35;31.65;;;5.70;99.90;;;;;;5024752;28;20424;-65
2021/12/29 01:26:52;;;;;;;525.58;30.90;;;5.60;99.90;;;;;;5009896;28;20995;-65
2021/12/29 01:29:19;;;;;;;225.52;24.10;;;5.70;99.90;;;;;;5026700;28;20056;-66
2021/12/29 01:31:46;;;;;;;417.88;26.80;;;5.60;99.90;;;;;;5024968;28;20753;-65
2021/12/29 01:34:14;;;;;;;657.97;31.00;;;5.60;99.90;;;;;;5022745;28;20042;-65
2021/12/29 01:36:41;;;;;;;542.42;25.42;;;5.60;99.90;;;;;;5021968;28;20115;-65
2021/12/29 01:39:12;;;;;;;399.00;23.38;;;5.50;99.90;;;;;;5026649;28;20215;-65
2021/12/29 01:41:39;;;;;;;312.73;19.65;;;5.50;99.90;;;;;;5024527;28;20041;-65
2021/12/29 01:44:08;;;;;;;526.15;28.40;;;5.50;99.90;;;;;;5024146;28;20053;-65
2021/12/29 01:46:36;;;;;;;178.68;17.98;;;5.50;99.90;;;;;;5025014;28;20056;-65
2021/12/29 01:49:03;;;;;;;96.95;14.27;;;5.50;99.90;;;;;;5024397;28;20376;-65
2021/12/29 01:51:30;;;;;;;211.68;19.65;;;5.60;99.90;;;;;;5025560;28;20056;-65
2021/12/29 01:54:43;;;;;;;114.47;16.83;;;5.60;99.90;;;;;;5023652;28;20099;-65
2021/12/29 01:56:56;;;;;;;146.93;17.55;;;5.60;99.90;;;;;;5020748;28;20061;-66
2021/12/29 01:59:24;;;;;;;412.33;21.90;;;5.60;99.90;;;;;;5021002;28;20121;-65
2021/12/29 02:01:52;;;;;;;319.63;17.83;;;5.60;99.90;;;;;;5010498;28;20048;-65
2021/12/29 02:04:20;;;;;;;89.95;13.02;;;5.60;99.90;;;;;;5012275;28;20385;-65
2021/12/29 02:06:47;;;;;;;50.67;11.38;;;5.60;99.90;;;;;;5025417;28;20128;-66
2021/12/29 02:09:13;;;;;;;48.38;11.68;;;5.50;99.90;;;;;;5024980;28;20045;-65
2021/12/29 02:11:42;;;;;;;68.40;12.82;;;5.50;99.90;;;;;;5007265;28;20037;-66
2021/12/29 02:14:09;;;;;;;46.47;11.07;;;5.60;99.90;;;;;;5024983;28;20119;-65
2021/12/29 02:16:36;;;;;;;113.93;15.23;;;5.50;99.90;;;;;;5024692;28;20080;-66
2021/12/29 02:19:11;;;;;;;91.50;16.83;;;5.50;99.90;;;;;;5024055;28;20510;-65
2021/12/29 02:21:40;;;;;;;123.60;21.42;;;5.50;99.90;;;;;;5025516;28;20124;-65
2021/12/29 02:26:37;;;;;;;165.43;22.52;;;5.60;99.90;;;;;;5025592;28;20052;-65
2021/12/29 02:29:10;;;;;;;108.63;16.17;;;5.60;99.90;;;;;;5019008;28;20037;-65
2021/12/29 02:31:37;;;;;;;130.48;25.42;;;5.70;99.90;;;;;;5012760;28;20053;-65
2021/12/29 02:34:05;;;;;;;124.13;20.10;;;5.80;99.90;;;;;;5024399;28;20060;-65
2021/12/29 02:36:31;;;;;;;110.45;22.23;;;5.80;99.90;;;;;;5023522;28;20103;-65
2021/12/29 02:38:58;;;;;;;124.10;22.75;;;5.80;99.90;;;;;;5025065;28;20066;-65
2021/12/29 02:41:26;;;;;;;138.68;22.45;;;5.80;99.90;;;;;;5025285;28;20045;-65
2021/12/29 02:44:00;;;;;;;157.77;24.23;;;5.90;99.90;;;;;;5025352;28;20051;-65
2021/12/29 02:46:28;;;;;;;139.27;18.63;;;5.90;99.90;;;;;;5023348;28;20065;-65
2021/12/29 02:49:01;;;;;;;139.65;19.45;;;6.00;99.90;;;;;;5017978;28;20048;-65
2021/12/29 02:51:32;;;;;;;97.43;16.20;;;5.90;99.90;;;;;;5023596;28;20467;-66
2021/12/29 02:53:58;;;;;;;103.45;13.80;;;5.90;99.90;;;;;;5023408;28;20045;-65
2021/12/29 02:56:27;;;;;;;82.82;13.00;;;5.80;99.90;;;;;;5021716;28;20050;-65
2021/12/29 02:58:54;;;;;;;53.05;10.57;;;5.60;99.90;;;;;;5010877;28;20053;-66
2021/12/29 03:01:24;;;;;;;45.10;10.38;;;5.70;99.90;;;;;;5030121;28;20041;-65
2021/12/29 03:03:51;;;;;;;60.95;12.15;;;5.70;99.90;;;;;;5027119;28;20119;-65
2021/12/29 03:06:17;;;;;;;112.57;15.95;;;5.70;99.90;;;;;;5028044;28;20087;-65
2021/12/29 03:08:44;;;;;;;74.57;12.18;;;5.70;99.90;;;;;;5029182;28;20053;-65
2021/12/29 03:11:11;;;;;;;176.27;20.73;;;5.70;99.90;;;;;;5027946;28;20497;-65
2021/12/29 03:13:39;;;;;;;132.85;18.10;;;5.70;99.90;;;;;;5029872;28;20117;-65
2021/12/29 03:16:06;;;;;;;267.38;23.13;;;5.80;99.90;;;;;;5009748;28;20132;-65
2021/12/29 03:18:42;;;;;;;142.07;18.42;;;5.70;99.90;;;;;;5029750;28;20037;-65
2021/12/29 03:21:09;;;;;;;189.05;20.65;;;5.70;99.90;;;;;;5020933;28;20045;-65
2021/12/29 03:23:35;;;;;;;180.07;21.90;;;5.80;99.90;;;;;;5020776;28;20064;-65
2021/12/29 03:26:02;;;;;;;124.65;19.20;;;5.70;99.90;;;;;;5027159;28;20041;-65
2021/12/29 03:28:29;;;;;;;176.43;22.75;;;5.80;99.90;;;;;;5020773;28;20040;-65
2021/12/29 03:30:56;;;;;;;147.32;27.90;;;5.90;99.90;;;;;;5011504;28;20500;-65
2021/12/29 03:33:25;;;;;;;199.93;28.40;;;6.00;99.90;;;;;;5027529;28;20084;-65
2021/12/29 03:35:55;;;;;;;163.90;26.27;;;6.00;99.90;;;;;;5029236;28;20052;-65
2021/12/29 03:38:25;;;;;;;138.60;20.20;;;6.00;99.90;;;;;;5027657;28;20049;-66
2021/12/29 03:40:53;;;;;;;177.85;25.58;;;6.10;99.90;;;;;;5023714;28;20479;-65
2021/12/29 03:43:20;;;;;;;227.48;27.63;;;6.10;99.90;;;;;;5026177;28;20111;-65
2021/12/29 03:45:54;;;;;;;142.23;21.40;;;6.10;99.90;;;;;;5010209;28;20049;-65
2021/12/29 03:48:24;;;;;;;167.63;25.65;;;6.20;99.90;;;;;;5028669;28;20483;-66
2021/12/29 03:50:51;;;;;;;160.40;27.17;;;6.30;99.90;;;;;;5016272;28;20372;-65
2021/12/29 03:53:17;;;;;;;164.57;23.65;;;6.20;99.90;;;;;;5023751;28;20111;-65
2021/12/29 03:55:45;;;;;;;198.00;24.90;;;6.20;99.90;;;;;;5027881;28;20103;-65
2021/12/29 03:58:11;;;;;;;154.13;22.20;;;6.20;99.90;;;;;;5027793;28;20464;-66
2021/12/29 04:00:38;;;;;;;197.25;30.85;;;6.20;99.90;;;;;;5026811;28;20085;-65
2021/12/29 04:03:05;;;;;;;217.45;34.85;;;6.20;99.90;;;;;;5009661;28;20071;-65
2021/12/29 04:05:32;;;;;;;207.85;32.15;;;6.20;99.90;;;;;;5029044;28;20088;-66
2021/12/29 04:07:59;;;;;;;190.77;35.97;;;6.30;99.90;;;;;;5025246;28;21178;-65
2021/12/29 04:10:26;;;;;;;230.63;32.08;;;6.30;99.90;;;;;;5028156;28;20053;-65
2021/12/29 04:12:52;;;;;;;220.18;38.90;;;6.30;99.90;;;;;;5024583;28;20045;-65
2021/12/29 04:15:19;;;;;;;222.43;34.72;;;6.20;99.90;;;;;;5026781;28;20053;-65
2021/12/29 04:17:48;;;;;;;204.77;30.75;;;6.30;99.90;;;;;;5023640;28;20088;-65
2021/12/29 04:23:07;;;;;;;200.63;30.02;;;6.30;99.90;;;;;;5019420;28;20041;-65
2021/12/29 04:25:36;;;;;;;239.70;35.28;;;6.30;99.90;;;;;;5027291;28;20385;-65
2021/12/29 04:28:10;;;;;;;231.83;38.43;;;6.30;99.90;;;;;;5027175;28;20138;-65
2021/12/29 04:30:40;;;;;;;312.08;41.53;;;6.30;99.90;;;;;;5027665;28;20307;-65
2021/12/29 04:33:06;;;;;;;242.70;44.40;;;6.30;99.90;;;;;;5024299;28;20049;-65
2021/12/29 04:35:33;;;;;;;339.13;45.45;;;6.40;99.90;;;;;;5026797;28;20041;-65
2021/12/29 04:38:04;;;;;;;318.13;40.85;;;6.40;99.90;;;;;;5026677;28;20112;-65
2021/12/29 04:40:32;;;;;;;399.50;44.47;;;6.40;99.90;;;;;;5027011;28;20049;-65
2021/12/29 04:43:00;;;;;;;337.95;44.75;;;6.40;99.90;;;;;;5007662;28;20153;-65
2021/12/29 04:45:27;;;;;;;453.85;45.03;;;6.40;99.90;;;;;;5025491;28;20196;-65
2021/12/29 04:47:54;;;;;;;478.95;40.10;;;6.40;99.90;;;;;;5026747;28;20051;-65
2021/12/29 04:50:35;;;;;;;418.45;48.38;;;6.50;99.90;;;;;;5026418;28;20419;-66
2021/12/29 04:53:03;;;;;;;350.17;48.20;;;6.50;99.90;;;;;;5027933;28;20045;-65
2021/12/29 04:55:30;;;;;;;346.20;43.05;;;6.50;99.90;;;;;;5013677;28;20103;-65
2021/12/29 04:57:58;;;;;;;375.35;48.30;;;6.50;99.90;;;;;;5026515;28;20377;-65
2021/12/29 05:00:26;;;;;;;378.30;49.35;;;6.60;99.90;;;;;;5026227;28;20088;-65
2021/12/29 05:02:54;;;;;;;514.35;43.45;;;6.60;99.90;;;;;;5042811;28;20053;-65
2021/12/29 05:05:37;;;;;;;643.55;47.42;;;6.50;99.90;;;;;;5025119;28;20111;-65
2021/12/29 05:10:51;;;;;;;541.38;52.97;;;6.50;99.90;;;;;;5027276;28;20463;-65
2021/12/29 05:13:18;;;;;;;734.08;55.13;;;6.50;99.90;;;;;;5026129;28;20116;-65
2021/12/29 05:15:45;;;;;;;462.48;45.72;;;6.50;99.90;;;;;;5015691;28;20056;-65
2021/12/29 05:18:12;;;;;;;529.95;49.88;;;6.50;99.90;;;;;;5025527;28;20049;-66
2021/12/29 05:20:38;;;;;;;804.45;50.45;;;6.50;99.90;;;;;;5026040;28;20041;-65
2021/12/29 05:23:06;;;;;;;424.48;44.80;;;6.60;99.90;;;;;;5026999;28;20500;-65
2021/12/29 05:25:32;;;;;;;292.77;33.00;;;6.50;99.90;;;;;;5023930;28;20123;-65
2021/12/29 05:27:58;;;;;;;647.25;52.72;;;6.60;99.90;;;;;;5026247;28;20049;-65
2021/12/29 05:30:25;;;;;;;536.72;49.10;;;6.60;99.90;;;;;;5025421;28;20053;-65
2021/12/29 05:32:52;;;;;;;623.50;44.33;;;6.60;99.90;;;;;;5027300;28;20053;-65
2021/12/29 05:35:18;;;;;;;612.47;46.40;;;6.50;99.90;;;;;;5025014;28;20083;-65
2021/12/29 05:37:48;;;;;;;718.83;53.00;;;6.50;99.90;;;;;;5025531;28;20103;-65
2021/12/29 05:40:15;;;;;;;407.33;41.83;;;6.40;99.90;;;;;;5026646;28;20124;-65
2021/12/29 05:42:43;;;;;;;517.72;52.13;;;6.40;99.90;;;;;;5040676;28;20049;-65
2021/12/29 05:45:13;;;;;;;461.63;41.65;;;6.40;99.90;;;;;;5026650;28;20487;-65
2021/12/29 05:47:40;;;;;;;;;;;6.50;99.90;;;;;;5025073;28;20096;-65
2021/12/29 05:50:09;;;;;;;390.77;39.90;;;6.40;99.90;;;;;;5025418;28;19921;-65
2021/12/29 05:52:36;;;;;;;329.80;39.90;;;6.40;99.90;;;;;;5025313;28;20081;-65
2021/12/29 05:55:03;;;;;;;315.70;38.72;;;6.40;99.90;;;;;;5025550;28;20135;-65
2021/12/29 05:57:30;;;;;;;343.80;47.80;;;6.50;99.90;;;;;;5024353;28;20069;-65
2021/12/29 05:59:57;;;;;;;353.25;32.47;;;6.50;99.90;;;;;;5024111;28;20080;-65
2021/12/29 06:02:24;;;;;;;369.10;36.80;;;6.50;99.90;;;;;;5026344;28;20054;-65
2021/12/29 06:04:50;;;;;;;423.40;49.88;;;6.50;99.90;;;;;;5025855;28;20045;-65
2021/12/29 06:07:17;;;;;;;545.42;48.13;;;6.50;99.90;;;;;;5023061;28;20041;-65
2021/12/29 06:09:44;;;;;;;588.78;45.88;;;6.40;99.90;;;;;;5025877;28;20060;-65
2021/12/29 06:12:10;;;;;;;341.13;40.15;;;6.40;99.90;;;;;;5025779;28;20046;-65
2021/12/29 06:14:36;;;;;;;311.30;37.65;;;6.40;99.90;;;;;;5041727;28;20064;-65
2021/12/29 06:17:04;;;;;;;346.75;37.17;;;6.40;99.90;;;;;;5025167;28;20051;-65
2021/12/29 06:19:33;;;;;;;316.85;38.35;;;6.40;99.90;;;;;;5012058;28;20065;-65
2021/12/29 06:22:00;;;;;;;392.85;38.50;;;6.40;99.90;;;;;;5025300;28;20474;-65
2021/12/29 06:24:26;;;;;;;283.60;37.10;;;6.40;99.90;;;;;;5025678;28;20507;-65
2021/12/29 06:26:53;;;;;;;281.08;34.65;;;6.30;99.90;;;;;;5040849;28;20049;-65
2021/12/29 06:29:20;;;;;;;347.00;37.97;;;6.30;99.90;;;;;;4995598;28;20050;-65
2021/12/29 06:31:47;;;;;;;589.85;37.42;;;6.40;99.90;;;;;;5030050;28;20080;-65
2021/12/29 06:34:13;;;;;;;641.38;39.95;;;6.30;99.90;;;;;;5029153;28;20104;-65
2021/12/29 06:36:40;;;;;;;778.75;41.28;;;6.30;99.90;;;;;;5028663;28;20068;-65
2021/12/29 06:39:07;;;;;;;458.13;35.47;;;6.30;99.90;;;;;;5027261;28;20041;-65
2021/12/29 06:41:33;;;;;;;590.03;39.78;;;6.30;99.90;;;;;;5029631;28;20095;-65
2021/12/29 06:44:00;;;;;;;644.67;36.33;;;6.40;99.90;;;;;;5028495;28;20057;-65
2021/12/29 06:46:26;;;;;;;703.83;41.95;;;6.30;99.90;;;;;;5027495;28;20061;-65
2021/12/29 06:48:53;;;;;;;883.90;43.67;;;6.40;99.90;;;;;;5043899;28;20093;-65
2021/12/29 06:51:20;;;;;;;1030.43;47.28;;;6.30;99.90;;;;;;5027341;28;20085;-65
2021/12/29 06:53:46;;;;;;;552.47;35.47;;;6.30;99.90;;;;;;5028914;28;20111;-65
2021/12/29 06:56:13;;;;;;;809.38;41.58;;;6.20;99.90;;;;;;5029368;28;20128;-65
2021/12/29 06:58:39;;;;;;;823.13;43.97;;;6.20;99.90;;;;;;5028288;28;20048;-65
2021/12/29 07:01:06;;;;;;;730.97;42.97;;;6.30;99.90;;;;;;5024781;28;20057;-65
2021/12/29 07:03:33;;;;;;;857.00;43.85;;;6.30;99.90;;;;;;5029118;28;20038;-65
2021/12/29 07:06:00;;;;;;;708.60;44.00;;;6.30;99.90;;;;;;5029623;28;20053;-65
2021/12/29 07:08:27;;;;;;;576.45;34.00;;;6.30;99.90;;;;;;5028229;28;20396;-65
2021/12/29 07:10:54;;;;;;;259.27;29.60;;;6.30;99.90;;;;;;5021972;28;20046;-65
2021/12/29 07:13:20;;;;;;;302.58;31.73;;;6.30;99.90;;;;;;5027157;28;20046;-65
2021/12/29 07:15:47;;;;;;;322.83;36.72;;;6.30;99.90;;;;;;5029168;28;20102;-65
2021/12/29 07:18:14;;;;;;;340.70;35.22;;;6.40;99.90;;;;;;5027322;28;20064;-65
2021/12/29 07:20:42;;;;;;;357.40;38.67;;;6.50;99.90;;;;;;5026893;28;20052;-65
2021/12/29 07:23:09;;;;;;;298.05;33.90;;;6.50;99.90;;;;;;5028240;28;20106;-65
2021/12/29 07:25:35;;;;;;;374.73;40.05;;;6.40;99.90;;;;;;5026954;28;20057;-65
2021/12/29 07:28:02;;;;;;;463.73;39.05;;;6.50;99.90;;;;;;5027826;28;20425;-65
2021/12/29 07:30:28;;;;;;;542.35;36.05;;;6.50;99.90;;;;;;5027718;28;20071;-65
2021/12/29 07:32:55;;;;;;;787.35;37.42;;;6.50;99.90;;;;;;5028895;28;20108;-65
2021/12/29 07:35:22;;;;;;;638.13;34.80;;;6.60;99.90;;;;;;5026983;28;20042;-65
2021/12/29 07:37:49;;;;;;;772.45;37.40;;;6.60;99.90;;;;;;5028332;28;20053;-65
2021/12/29 07:40:15;;;;;;;867.83;34.75;;;6.60;99.90;;;;;;5028545;28;20535;-65
2021/12/29 07:42:43;;;;;;;635.55;29.10;;;6.50;99.90;;;;;;5017162;28;20499;-65
2021/12/29 07:45:11;;;;;;;799.00;33.45;;;6.50;99.90;;;;;;5027562;28;20508;-65
2021/12/29 07:47:43;;;;;;;742.65;30.27;;;6.50;99.90;;;;;;5027193;28;20203;-65
2021/12/29 07:50:09;;;;;;;476.30;21.90;;;6.50;99.90;;;;;;5027689;28;20046;-65
2021/12/29 07:52:36;;;;;;;455.70;26.10;;;6.40;99.90;;;;;;5026171;28;20061;-65
2021/12/29 07:55:04;;;;;;;639.83;31.80;;;6.40;99.90;;;;;;5014443;28;20056;-65
2021/12/29 07:57:31;;;;;;;747.20;35.47;;;6.40;99.90;;;;;;5016229;28;20052;-67
2021/12/29 07:59:57;;;;;;;603.65;29.77;;;6.40;99.90;;;;;;5022214;28;20053;-65
2021/12/29 08:02:27;;;;;;;592.05;28.80;;;6.40;99.90;;;;;;5023774;28;20420;-65
2021/12/29 08:04:55;;;;;;;761.05;33.47;;;6.30;99.90;;;;;;5032215;28;20084;-65
2021/12/29 08:07:22;;;;;;;474.48;24.45;;;6.30;99.90;;;;;;5028169;28;20087;-65
2021/12/29 08:09:48;;;;;;;732.78;32.28;;;6.30;99.90;;;;;;5022170;28;20057;-65
2021/12/29 08:12:16;;;;;;;777.65;34.00;;;6.30;99.90;;;;;;5028241;28;20456;-65
2021/12/29 08:14:45;;;;;;;684.97;32.75;;;6.30;99.90;;;;;;5025459;28;20045;-65
2021/12/29 08:17:12;;;;;;;713.00;32.03;;;6.30;99.90;;;;;;5026475;28;20060;-65
2021/12/29 08:19:39;;;;;;;685.10;32.28;;;6.30;99.90;;;;;;5026766;28;20107;-65
2021/12/29 08:22:05;;;;;;;466.35;27.10;;;6.30;99.90;;;;;;5025533;28;20385;-65
2021/12/29 08:24:33;;;;;;;667.15;33.20;;;6.30;99.90;;;;;;5027846;28;20464;-65
2021/12/29 08:27:01;;;;;;;643.90;33.33;;;6.30;99.90;;;;;;5026769;28;20116;-65
2021/12/29 08:29:27;;;;;;;874.75;38.78;;;6.30;99.90;;;;;;5026714;28;20087;-65
2021/12/29 08:31:56;;;;;;;737.70;37.13;;;6.30;99.90;;;;;;5025640;28;20399;-65
2021/12/29 08:34:22;;;;;;;866.25;41.55;;;6.30;99.90;;;;;;5027437;28;20045;-65
2021/12/29 08:36:49;;;;;;;808.20;40.92;;;6.30;99.90;;;;;;5026260;28;20045;-65
2021/12/29 08:39:18;;;;;;;1035.85;48.17;;;6.30;99.90;;;;;;5025461;28;20045;-66
2021/12/29 08:41:46;;;;;;;655.00;37.95;;;6.30;99.90;;;;;;5022040;28;20060;-66
2021/12/29 08:44:12;;;;;;;687.75;36.20;;;6.30;99.90;;;;;;5025737;28;20055;-66
2021/12/29 08:46:39;;;;;;;486.10;27.83;;;6.30;99.90;;;;;;5037443;28;20084;-66
2021/12/29 08:49:06;;;;;;;488.67;29.48;;;6.40;99.90;;;;;;5026699;28;20045;-66
2021/12/29 08:51:33;;;;;;;376.13;28.25;;;6.40;99.90;;;;;;5026428;28;20554;-66
2021/12/29 08:54:01;;;;;;;337.05;28.90;;;6.40;99.90;;;;;;5023682;28;20380;-66
2021/12/29 08:56:27;;;;;;;373.45;27.40;;;6.50;99.90;;;;;;5025273;28;20041;-66
2021/12/29 08:58:54;;;;;;;471.25;28.48;;;6.50;99.90;;;;;;5026484;28;20107;-66
2021/12/29 09:01:22;;;;;;;497.52;30.67;;;6.50;99.90;;;;;;5025229;28;20033;-66
2021/12/29 09:03:50;;;;;;;506.33;30.30;;;6.50;99.90;;;;;;5024484;28;20033;-66
2021/12/29 09:06:17;;;;;;;481.40;33.22;;;6.50;99.90;;;;;;5024459;28;20049;-66
2021/12/29 09:08:45;;;;;;;486.58;32.38;;;6.50;99.90;;;;;;5005799;28;20507;-66
2021/12/29 09:11:13;;;;;;;605.72;36.95;;;6.50;99.90;;;;;;5024957;28;20119;-66
2021/12/29 09:13:40;;;;;;;455.27;28.40;;;6.60;99.90;;;;;;5022615;28;20065;-66
2021/12/29 09:16:08;;;;;;;654.40;38.22;;;6.60;99.90;;;;;;5026855;28;20057;-66
2021/12/29 09:18:36;;;;;;;566.97;34.05;;;6.60;99.90;;;;;;5040309;28;20095;-66
2021/12/29 09:21:10;;;;;;;575.50;34.38;;;6.60;99.90;;;;;;5025533;28;20480;-66
2021/12/29 09:23:38;;;;;;;614.45;37.38;;;6.60;99.90;;;;;;5021278;28;20069;-65
2021/12/29 09:26:05;;;;;;;337.95;27.55;;;6.70;99.90;;;;;;5023998;28;20053;-66
2021/12/29 09:28:32;;;;;;;470.52;33.65;;;6.70;99.90;;;;;;5021358;28;20060;-65
2021/12/29 09:30:59;;;;;;;335.48;30.50;;;6.70;99.90;;;;;;5025245;28;20474;-66
2021/12/29 09:33:26;;;;;;;249.60;29.35;;;6.70;99.90;;;;;;5026684;28;20391;-66
2021/12/29 09:35:57;;;;;;;383.10;32.15;;;6.70;99.90;;;;;;5014701;28;20100;-66
2021/12/29 09:38:24;;;;;;;562.60;32.17;;;6.80;99.90;;;;;;5026582;28;20451;-66
2021/12/29 09:40:52;;;;;;;646.08;33.20;;;6.80;99.90;;;;;;5024395;28;20128;-66
2021/12/29 09:43:22;;;;;;;793.50;38.05;;;6.80;99.90;;;;;;5025477;28;20073;-66
2021/12/29 09:45:50;;;;;;;570.72;29.25;;;6.70;99.90;;;;;;5015374;28;20508;-66
2021/12/29 09:48:23;;;;;;;580.45;28.27;;;6.70;99.90;;;;;;5024891;28;20124;-65
2021/12/29 09:50:51;;;;;;;741.28;34.35;;;6.70;99.90;;;;;;5025645;28;20131;-66
2021/12/29 09:53:18;;;;;;;581.80;28.17;;;6.70;99.90;;;;;;5024330;28;20049;-66
2021/12/29 09:55:49;;;;;;;659.70;31.30;;;6.70;99.90;;;;;;5023883;28;20532;-66
2021/12/29 09:58:17;;;;;;;663.30;33.05;;;6.70;99.90;;;;;;5024764;28;20063;-66
2021/12/29 10:00:48;;;;;;;595.78;28.65;;;6.70;99.90;;;;;;5024981;28;20046;-66
2021/12/29 10:03:20;;;;;;;694.47;34.95;;;6.70;99.90;;;;;;5025309;28;20045;-66
2021/12/29 10:05:48;;;;;;;493.20;29.33;;;6.80;99.90;;;;;;5019683;28;20194;-66
2021/12/29 10:08:30;;;;;;;536.10;29.67;;;6.90;99.90;;;;;;5025919;28;20048;-66
2021/12/29 10:11:00;;;;;;;595.83;31.58;;;6.90;99.90;;;;;;5023410;28;20132;-65
2021/12/29 10:13:33;;;;;;;532.83;27.92;;;7.00;99.90;;;;;;5025933;28;20034;-65
2021/12/29 10:16:02;;;;;;;467.73;27.42;;;6.90;99.90;;;;;;5023099;28;20053;-65
2021/12/29 10:18:31;;;;;;;511.20;27.77;;;6.90;99.90;;;;;;5022889;28;20045;-66
2021/12/29 10:21:03;;;;;;;462.52;26.48;;;6.90;99.90;;;;;;5024234;28;20519;-65
2021/12/29 10:23:32;;;;;;;436.42;25.52;;;6.90;99.90;;;;;;5024985;28;20045;-66
2021/12/29 10:26:10;;;;;;;425.95;26.15;;;6.90;99.90;;;;;;5012329;28;20503;-66
2021/12/29 10:28:40;;;;;;;328.25;20.13;;;6.90;99.90;;;;;;5024111;28;20057;-68
2021/12/29 10:31:16;;;;;;;227.63;15.80;;;6.90;99.90;;;;;;5021100;28;20111;-72
2021/12/29 10:33:47;;;;;;;269.83;18.70;;;6.90;99.90;;;;;;5021697;28;20076;-68
2021/12/29 10:36:31;;;;;;;163.35;16.15;;;6.90;99.90;;;;;;5021743;28;20046;-69
2021/12/29 10:39:09;;;;;;;323.77;22.85;;;6.90;99.90;;;;;;5024917;28;20519;-68
2021/12/29 10:41:50;;;;;;;244.55;20.00;;;6.90;99.90;;;;;;5024377;28;20049;-68
2021/12/29 10:44:34;;;;;;;230.77;19.40;;;7.00;99.90;;;;;;5023702;28;20157;-68
2021/12/29 10:47:12;;;;;;;150.27;19.50;;;7.00;99.90;;;;;;5021673;28;20569;-68
2021/12/29 10:49:50;;;;;;;240.27;24.50;;;7.10;99.90;;;;;;5023025;28;20049;-68
2021/12/29 10:52:27;;;;;;;190.48;21.40;;;7.20;99.90;;;;;;5019191;28;20441;-68
2021/12/29 10:54:53;;;;;;;132.30;18.63;;;7.20;99.90;;;;;;5018264;28;20053;-68
2021/12/29 10:57:20;;;;;;;284.63;25.23;;;7.30;99.90;;;;;;5020521;28;20462;-68
2021/12/29 10:59:59;;;;;;;299.95;25.65;;;7.30;99.90;;;;;;5023166;28;20057;-68
2021/12/29 11:02:29;;;;;;;253.70;21.60;;;7.40;99.90;;;;;;5023544;28;20046;-68
2021/12/29 11:04:57;;;;;;;381.95;26.38;;;7.40;99.90;;;;;;5023750;28;20111;-68
2021/12/29 11:07:31;;;;;;;446.38;33.28;;;7.50;99.90;;;;;;5023350;28;20073;-68
2021/12/29 11:10:16;;;;;;;306.65;25.65;;;7.50;99.90;;;;;;5019026;28;20331;-68
2021/12/29 11:12:55;;;;;;;490.80;33.08;;;7.60;99.90;;;;;;5039510;28;20045;-68
2021/12/29 11:15:21;;;;;;;369.75;28.05;;;7.60;99.90;;;;;;4993997;28;20044;-68
2021/12/29 11:17:48;;;;;;;252.30;25.40;;;7.70;99.90;;;;;;5020281;28;20398;-68
2021/12/29 11:20:21;;;;;;;332.35;27.70;;;7.70;99.90;;;;;;5018248;28;20464;-68
2021/12/29 11:22:49;;;;;;;217.05;23.75;;;7.70;99.90;;;;;;5042588;28;20065;-68
2021/12/29 11:25:27;;;;;;;215.32;23.65;;;7.80;99.90;;;;;;5025616;28;20376;-67
2021/12/29 11:27:54;;;;;;;188.23;23.75;;;7.80;99.90;;;;;;5021911;28;20053;-68
2021/12/29 11:30:21;;;;;;;141.68;21.73;;;7.80;99.90;;;;;;5025974;28;20515;-68
2021/12/29 11:32:49;;;;;;;171.85;24.10;;;7.80;99.90;;;;;;5026968;28;20045;-68
2021/12/29 11:35:22;;;;;;;142.20;22.02;;;7.90;99.90;;;;;;5002973;28;20496;-67
2021/12/29 11:37:51;;;;;;;125.47;21.80;;;7.90;99.90;;;;;;5023064;28;20049;-68
2021/12/29 11:40:31;;;;;;;116.27;21.20;;;8.00;99.90;;;;;;5009501;28;20084;-68
2021/12/29 11:42:57;;;;;;;113.63;20.60;;;8.00;99.90;;;;;;5002354;28;20053;-68
2021/12/29 11:45:24;;;;;;;111.70;20.52;;;8.00;99.90;;;;;;5027128;28;20365;-68
2021/12/29 11:47:54;;;;;;;103.05;19.98;;;8.00;99.90;;;;;;5027747;28;20566;-68
2021/12/29 11:50:50;;;;;;;105.87;19.73;;;8.10;99.90;;;;;;5017341;28;20136;-68
2021/12/29 11:53:26;;;;;;;82.07;16.52;;;8.00;99.90;;;;;;5022416;28;20151;-68
2021/12/29 11:55:56;;;;;;;76.25;15.50;;;8.00;99.90;;;;;;5023866;28;20057;-68
2021/12/29 11:58:28;;;;;;;;;;;8.00;99.90;;;;;;5024875;28;20128;-68
2021/12/29 12:01:12;;;;;;;67.95;14.48;;;8.00;99.90;;;;;;5013573;28;19929;-68
2021/12/29 12:04:03;;;;;;;60.88;13.43;;;7.90;99.90;;;;;;5026006;28;20468;-68
2021/12/29 12:06:35;;;;;;;52.90;12.63;;;7.90;99.90;;;;;;5023256;28;20492;-68
2021/12/29 12:09:21;;;;;;;49.03;12.43;;;7.90;99.90;;;;;;5024209;28;20033;-68
2021/12/29 12:12:03;;;;;;;52.55;12.77;;;7.90;99.90;;;;;;5023769;28;20077;-68
2021/12/29 12:14:47;;;;;;;50.38;13.35;;;7.90;99.90;;;;;;5022345;28;20372;-68
2021/12/29 12:17:27;;;;;;;48.20;12.18;;;7.90;99.90;;;;;;5025092;28;20049;-67
2021/12/29 12:19:58;;;;;;;;;;;7.90;99.90;;;;;;5015219;28;20048;-68
2021/12/29 12:22:28;;;;;;;24.45;8.85;;;8.00;99.90;;;;;;5025486;28;20016;-67
2021/12/29 12:24:55;;;;;;;;;;;8.00;99.90;;;;;;5026006;28;20399;-68
2021/12/29 12:27:39;;;;;;;34.22;10.73;;;7.90;99.90;;;;;;5002468;28;19925;-68
2021/12/29 12:30:13;;;;;;;36.55;10.98;;;7.90;99.90;;;;;;5011315;28;20049;-68
2021/12/29 12:33:07;;;;;;;43.90;11.90;;;7.90;99.90;;;;;;5024131;28;20085;-68
2021/12/29 12:35:45;;;;;;;42.92;10.48;;;8.00;99.90;;;;;;5026199;28;20392;-67
2021/12/29 12:38:17;;;;;;;31.23;10.35;;;8.00;99.90;;;;;;5023730;28;20065;-68
2021/12/29 12:40:44;;;;;;;29.17;9.90;;;8.00;99.90;;;;;;5024196;28;20050;-68
2021/12/29 12:43:17;;;;;;;36.75;10.05;;;8.00;99.90;;;;;;5023207;28;20068;-67
2021/12/29 12:45:47;;;;;;;25.27;9.32;;;7.90;99.90;;;;;;5023440;28;20670;-68